Buoy 51828

sailwx.info

Track history (hours):
 
Tides and Currents Weather Stations Pressure Air Temp Water Temp Dewpoint Dewpoint Depression Visibility Wind Speed Wind Dir Waves Ship Positions

Drifting buoy 51828

Last reported at 2018-Apr-19 09:00 UTC. Time now 2018-Apr-19 15:25 UTC.
Position N 22°01' W 174°59'.

Water temperature 24.8 ° C

Date/timePositionNaut miles runAvg speedWind from/ knotsBaromVisibWave heightAir tempDewpointWater temp
2018-Apr-19 09:00N 22°01' W 174°59'2 2.1 24.8
2018-Apr-19 08:00N 22°02' W 174°58'0 0.0 24.8
2018-Apr-19 07:00N 22°02' W 174°58'0 0.0 24.8
2018-Apr-19 06:00N 22°02' W 174°58'1 1.3 24.8
2018-Apr-19 05:00N 22°02' W 174°59'0 0.0 24.8
2018-Apr-19 04:00N 22°02' W 174°59'1 0.6 24.8
2018-Apr-19 03:00N 22°02' W 174°59'0 0.0 24.8
2018-Apr-19 02:00N 22°02' W 174°59'3 0.5 24.8
2018-Apr-18 21:00N 22°04' W 175°01'1 0.6 24.7
2018-Apr-18 20:00N 22°04' W 175°01'0 0.0 24.6
2018-Apr-18 19:00N 22°04' W 175°01'0 0.0 24.6
2018-Apr-18 18:00N 22°04' W 175°01'2 2.2 24.6
2018-Apr-18 17:00N 22°04' W 175°04'0 0.0 24.6
2018-Apr-18 16:00N 22°04' W 175°04'2 0.3 24.7
2018-Apr-18 09:00N 22°05' W 175°02'0 0.0 24.7
2018-Apr-18 08:00N 22°05' W 175°02'1 1.3 24.7
2018-Apr-18 07:00N 22°04' W 175°03'1 0.8 24.7
2018-Apr-18 06:00N 22°05' W 175°04'1 0.8 24.7
2018-Apr-18 05:00N 22°04' W 175°03'1 0.6 24.7
2018-Apr-18 04:00N 22°04' W 175°02'3 1.3 24.7
2018-Apr-18 02:00N 22°07' W 175°04'0 0.0 24.7
2018-Apr-18 00:00N 22°07' W 175°04'0 0.0 24.6
2018-Apr-17 22:00N 22°07' W 175°04'1 1.3 24.5
2018-Apr-17 21:00N 22°07' W 175°05'1 0.6 24.5
2018-Apr-17 19:00N 22°08' W 175°06'0 0.0 24.4
2018-Apr-17 18:00N 22°08' W 175°06'1 0.8 24.4
2018-Apr-17 17:00N 22°08' W 175°05'2 1.7 24.4
2018-Apr-17 16:00N 22°08' W 175°07'0 0.0 24.4
2018-Apr-17 15:00N 22°08' W 175°07'1 0.8 24.5
2018-Apr-17 14:00N 22°09' W 175°08'0 0.0 24.5
2018-Apr-17 13:00N 22°09' W 175°08'0 0.0 24.4
2018-Apr-17 10:00N 22°09' W 175°08'0 0.0 24.4
2018-Apr-17 09:00N 22°09' W 175°08'1 0.8 24.3
2018-Apr-17 08:00N 22°10' W 175°08'1 1.2 24.3
2018-Apr-17 07:00N 22°11' W 175°08'1 0.6 24.3
2018-Apr-17 06:00N 22°10' W 175°08'1 0.6 24.3
2018-Apr-17 05:00N 22°11' W 175°08'1 1.3 24.3
2018-Apr-17 04:00N 22°11' W 175°07'1 0.6 24.3
2018-Apr-17 03:00N 22°11' W 175°07'1 1.3 24.3
2018-Apr-17 02:00N 22°11' W 175°08'0 0.0 24.3
2018-Apr-17 01:00N 22°11' W 175°08'1 0.3 24.2
2018-Apr-16 22:00N 22°12' W 175°08'1 0.3 24.1
2018-Apr-16 20:00N 22°13' W 175°08'1 0.8 24.0
2018-Apr-16 19:00N 22°13' W 175°08'0 0.0 23.9
2018-Apr-16 18:00N 22°13' W 175°08'1 1.3 23.7
2018-Apr-16 17:00N 22°14' W 175°07'0 0.0 23.7
2018-Apr-16 16:00N 22°14' W 175°07'1 0.8 23.7
2018-Apr-16 15:00N 22°14' W 175°08'0 0.0 23.7
2018-Apr-16 14:00N 22°14' W 175°08'0 0.0 23.7
2018-Apr-16 13:00N 22°14' W 175°08'3 0.8 23.7
2018-Apr-16 09:00N 22°17' W 175°07'0 0.0 23.6
2018-Apr-16 08:00N 22°17' W 175°07'1 0.8 23.5
2018-Apr-16 07:00N 22°18' W 175°06'1 0.8 23.5
2018-Apr-16 06:00N 22°19' W 175°05'1 1.1 23.5
2018-Apr-16 05:00N 22°19' W 175°04'0 0.0 23.5
2018-Apr-16 03:00N 22°19' W 175°04'1 1.3 23.5
2018-Apr-16 02:00N 22°20' W 175°04'0 0.0 23.5
2018-Apr-16 01:00N 22°20' W 175°04'3 1.1 23.5
2018-Apr-15 22:00N 22°22' W 175°01'2 0.8 23.5
2018-Apr-15 20:00N 22°23' W 174°59'1 0.8 23.5
2018-Apr-15 19:00N 22°23' W 175°00'2 2.1 23.5
2018-Apr-15 18:00N 22°25' W 174°58'1 0.6 23.4
2018-Apr-15 17:00N 22°25' W 174°59'0 0.0 23.5
2018-Apr-15 16:00N 22°25' W 174°59'2 1.6 23.5
2018-Apr-15 15:00N 22°26' W 174°58'0 0.0 23.5
2018-Apr-15 14:00N 22°26' W 174°58'5 0.9 23.5
2018-Apr-15 09:00N 22°28' W 174°53'3 2.8 23.6
2018-Apr-15 08:00N 22°29' W 174°50'1 1.3 23.7
2018-Apr-15 07:00N 22°29' W 174°52'0 0.0 23.7
2018-Apr-15 06:00N 22°29' W 174°52'2 2.1 23.7
2018-Apr-15 05:00N 22°31' W 174°50'1 0.8 23.7
2018-Apr-15 04:00N 22°30' W 174°49'1 1.1 23.8
2018-Apr-15 03:00N 22°30' W 174°48'0 0.0 23.8
2018-Apr-15 02:00N 22°30' W 174°48'0 0.0 23.8
2018-Apr-15 01:00N 22°30' W 174°48'2 0.8 23.8
2018-Apr-14 22:00N 22°31' W 174°46'2 2.3 23.8
2018-Apr-14 21:00N 22°30' W 174°43'0 0.0 23.8
2018-Apr-14 20:00N 22°30' W 174°43'1 0.8 23.8
2018-Apr-14 19:00N 22°29' W 174°44'2 2.1 23.9
2018-Apr-14 18:00N 22°28' W 174°43'1 1.1 23.9
2018-Apr-14 17:00N 22°28' W 174°41'2 2.3 23.9
2018-Apr-14 16:00N 22°27' W 174°39'0 0.0 23.9
2018-Apr-14 15:00N 22°27' W 174°39'0 0.0 23.9
2018-Apr-14 14:00N 22°27' W 174°39'4 0.8 23.9
2018-Apr-14 09:00N 22°25' W 174°35'1 0.6 24.0
2018-Apr-14 08:00N 22°25' W 174°35'1 0.6 24.1
2018-Apr-14 07:00N 22°25' W 174°35'2 2.3 24.1
2018-Apr-14 06:00N 22°25' W 174°33'0 0.0 24.1
2018-Apr-14 05:00N 22°25' W 174°33'1 0.6 24.1
2018-Apr-14 04:00N 22°25' W 174°34'1 0.6 24.1
2018-Apr-14 03:00N 22°25' W 174°33'0 0.0 24.1
2018-Apr-14 01:00N 22°25' W 174°33'2 0.8 24.1
2018-Apr-13 22:00N 22°24' W 174°31'1 0.8 24.1
2018-Apr-13 21:00N 22°25' W 174°31'0 0.0 24.1
2018-Apr-13 20:00N 22°25' W 174°31'1 0.8 24.1
2018-Apr-13 19:00N 22°24' W 174°31'0 0.0 24.1
2018-Apr-13 18:00N 22°24' W 174°31'1 1.3 24.1
2018-Apr-13 17:00N 22°23' W 174°29'1 0.6 24.1
2018-Apr-13 16:00N 22°24' W 174°29'0 0.0 24.1
2018-Apr-13 15:00N 22°24' W 174°29'4 4.5 24.1
2018-Apr-13 14:00N 22°25' W 174°25'0 0.0 24.1
2018-Apr-13 09:00N 22°25' W 174°25'1 0.6 24.2
2018-Apr-13 08:00N 22°25' W 174°24'1 0.8 24.2
2018-Apr-13 07:00N 22°25' W 174°23'1 1.3 24.2
2018-Apr-13 06:00N 22°26' W 174°22'0 0.0 24.3
2018-Apr-13 05:00N 22°26' W 174°22'1 0.8 24.3
2018-Apr-13 04:00N 22°26' W 174°22'1 0.3 24.3
2018-Apr-13 02:00N 22°26' W 174°21'0 0.0 24.4
2018-Apr-13 01:00N 22°26' W 174°21'4 1.3 24.4
2018-Apr-12 22:00N 22°26' W 174°17'1 0.8 24.3
2018-Apr-12 21:00N 22°26' W 174°16'1 1.3 24.3
2018-Apr-12 20:00N 22°26' W 174°15'0 0.0 24.3
2018-Apr-12 19:00N 22°26' W 174°15'2 1.7 24.3
2018-Apr-12 18:00N 22°26' W 174°13'0 0.0 24.3
2018-Apr-12 17:00N 22°26' W 174°13'0 0.0 24.3
2018-Apr-12 16:00N 22°26' W 174°13'0 0.0 24.3
2018-Apr-12 15:00N 22°26' W 174°13'4 4.1 24.3
2018-Apr-12 14:00N 22°23' W 174°10'0 0.0 24.3
2018-Apr-12 09:00N 22°23' W 174°10'1 1.1 24.4
2018-Apr-12 08:00N 22°23' W 174°08'1 0.8 24.4
2018-Apr-12 07:00N 22°23' W 174°08'1 0.8 24.5
2018-Apr-12 06:00N 22°22' W 174°08'3 2.9 24.5
2018-Apr-12 05:00N 22°20' W 174°07'0 0.0 24.5
2018-Apr-12 04:00N 22°20' W 174°07'0 0.0 24.6
2018-Apr-12 03:00N 22°20' W 174°07'0 0.0 24.6
2018-Apr-12 02:00N 22°20' W 174°07'2 0.5 24.5
2018-Apr-11 22:00N 22°18' W 174°05'1 0.8 24.3
2018-Apr-11 21:00N 22°17' W 174°06'1 0.6 24.2
2018-Apr-11 20:00N 22°17' W 174°05'0 0.0 24.2
2018-Apr-11 19:00N 22°17' W 174°05'2 1.9 24.1
2018-Apr-11 18:00N 22°16' W 174°06'2 1.9 24.2
2018-Apr-11 17:00N 22°14' W 174°05'0 0.0 24.2
2018-Apr-11 16:00N 22°14' W 174°05'0 0.0 24.2
2018-Apr-11 15:00N 22°14' W 174°05'4 4.2 24.2
2018-Apr-11 14:00N 22°10' W 174°06'2 0.5 24.2
2018-Apr-11 09:00N 22°08' W 174°08'1 0.6 24.2
2018-Apr-11 08:00N 22°08' W 174°07'1 0.8 24.3
2018-Apr-11 07:00N 22°07' W 174°08'1 1.3 24.3
2018-Apr-11 06:00N 22°07' W 174°07'1 0.6 24.3
2018-Apr-11 05:00N 22°06' W 174°07'1 0.8 24.3
2018-Apr-11 04:00N 22°05' W 174°07'2 1.6 24.3
2018-Apr-11 03:00N 22°04' W 174°08'0 0.0 24.3
2018-Apr-11 02:00N 22°04' W 174°08'4 1.0 24.3
2018-Apr-10 22:00N 22°01' W 174°10'0 0.0 24.2
2018-Apr-10 21:00N 22°01' W 174°10'1 1.2 24.2
2018-Apr-10 20:00N 21°59' W 174°10'2 2.3 24.2
2018-Apr-10 19:00N 21°59' W 174°13'0 0.0 24.2
2018-Apr-10 18:00N 21°59' W 174°13'1 1.3 24.2
2018-Apr-10 17:00N 21°58' W 174°12'2 1.7 24.2
2018-Apr-10 16:00N 21°58' W 174°14'0 0.0 24.2
2018-Apr-10 15:00N 21°58' W 174°14'5 0.8 24.2
2018-Apr-10 09:00N 21°53' W 174°17'1 0.8 24.3
2018-Apr-10 08:00N 21°53' W 174°16'2 2.1 24.2
2018-Apr-10 07:00N 21°52' W 174°18'0 0.0 24.2
2018-Apr-10 06:00N 21°52' W 174°18'1 0.8 24.2
2018-Apr-10 05:00N 21°51' W 174°19'2 1.6 24.2
2018-Apr-10 04:00N 21°50' W 174°20'0 0.0 24.2
2018-Apr-10 03:00N 21°50' W 174°20'1 0.8 24.2
2018-Apr-10 02:00N 21°49' W 174°20'2 0.3 24.3
2018-Apr-09 21:00N 21°48' W 174°19'0 0.0 24.2
2018-Apr-09 20:00N 21°48' W 174°19'1 1.3 24.2
2018-Apr-09 19:00N 21°47' W 174°20'0 0.0 24.2
2018-Apr-09 18:00N 21°47' W 174°20'1 0.6 24.2
2018-Apr-09 17:00N 21°47' W 174°20'2 1.7 24.2
2018-Apr-09 16:00N 21°47' W 174°22'0 0.0 24.2
2018-Apr-09 15:00N 21°47' W 174°22'4 3.7 24.2
2018-Apr-09 14:00N 21°45' W 174°25'0 0.0 24.2
2018-Apr-09 13:00N 21°45' W 174°25'1 0.2 24.2
2018-Apr-09 09:00N 21°46' W 174°24'   24.1
Track history (hours):
 
Tides and Currents Weather Stations Pressure Air Temp Water Temp Dewpoint Dewpoint Depression Visibility Wind Speed Wind Dir Waves Ship Positions

Drifting buoy 51828

Last reported at 2018-Apr-19 09:00 UTC. Time now 2018-Apr-19 15:25 UTC.
Position N 22°01' W 174°59'.

Water temperature 24.8 ° C

Date/timePositionNaut miles runAvg speedWind from/ knotsBaromVisibWave heightAir tempDewpointWater temp
2018-Apr-19 09:00N 22°01' W 174°59'2 2.1 24.8
2018-Apr-19 08:00N 22°02' W 174°58'0 0.0 24.8
2018-Apr-19 07:00N 22°02' W 174°58'0 0.0 24.8
2018-Apr-19 06:00N 22°02' W 174°58'1 1.3 24.8
2018-Apr-19 05:00N 22°02' W 174°59'0 0.0 24.8
2018-Apr-19 04:00N 22°02' W 174°59'1 0.6 24.8
2018-Apr-19 03:00N 22°02' W 174°59'0 0.0 24.8
2018-Apr-19 02:00N 22°02' W 174°59'3 0.5 24.8
2018-Apr-18 21:00N 22°04' W 175°01'1 0.6 24.7
2018-Apr-18 20:00N 22°04' W 175°01'0 0.0 24.6
2018-Apr-18 19:00N 22°04' W 175°01'0 0.0 24.6
2018-Apr-18 18:00N 22°04' W 175°01'2 2.2 24.6
2018-Apr-18 17:00N 22°04' W 175°04'0 0.0 24.6
2018-Apr-18 16:00N 22°04' W 175°04'2 0.3 24.7
2018-Apr-18 09:00N 22°05' W 175°02'0 0.0 24.7
2018-Apr-18 08:00N 22°05' W 175°02'1 1.3 24.7
2018-Apr-18 07:00N 22°04' W 175°03'1 0.8 24.7
2018-Apr-18 06:00N 22°05' W 175°04'1 0.8 24.7
2018-Apr-18 05:00N 22°04' W 175°03'1 0.6 24.7
2018-Apr-18 04:00N 22°04' W 175°02'3 1.3 24.7
2018-Apr-18 02:00N 22°07' W 175°04'0 0.0 24.7
2018-Apr-18 00:00N 22°07' W 175°04'0 0.0 24.6
2018-Apr-17 22:00N 22°07' W 175°04'1 1.3 24.5
2018-Apr-17 21:00N 22°07' W 175°05'1 0.6 24.5
2018-Apr-17 19:00N 22°08' W 175°06'0 0.0 24.4
2018-Apr-17 18:00N 22°08' W 175°06'1 0.8 24.4
2018-Apr-17 17:00N 22°08' W 175°05'2 1.7 24.4
2018-Apr-17 16:00N 22°08' W 175°07'0 0.0 24.4
2018-Apr-17 15:00N 22°08' W 175°07'1 0.8 24.5
2018-Apr-17 14:00N 22°09' W 175°08'0 0.0 24.5
2018-Apr-17 13:00N 22°09' W 175°08'0 0.0 24.4
2018-Apr-17 10:00N 22°09' W 175°08'0 0.0 24.4
2018-Apr-17 09:00N 22°09' W 175°08'1 0.8 24.3
2018-Apr-17 08:00N 22°10' W 175°08'1 1.2 24.3
2018-Apr-17 07:00N 22°11' W 175°08'1 0.6 24.3
2018-Apr-17 06:00N 22°10' W 175°08'1 0.6 24.3
2018-Apr-17 05:00N 22°11' W 175°08'1 1.3 24.3
2018-Apr-17 04:00N 22°11' W 175°07'1 0.6 24.3
2018-Apr-17 03:00N 22°11' W 175°07'1 1.3 24.3
2018-Apr-17 02:00N 22°11' W 175°08'0 0.0 24.3
2018-Apr-17 01:00N 22°11' W 175°08'1 0.3 24.2
2018-Apr-16 22:00N 22°12' W 175°08'1 0.3 24.1
2018-Apr-16 20:00N 22°13' W 175°08'1 0.8 24.0
2018-Apr-16 19:00N 22°13' W 175°08'0 0.0 23.9
2018-Apr-16 18:00N 22°13' W 175°08'1 1.3 23.7
2018-Apr-16 17:00N 22°14' W 175°07'0 0.0 23.7
2018-Apr-16 16:00N 22°14' W 175°07'1 0.8 23.7
2018-Apr-16 15:00N 22°14' W 175°08'0 0.0 23.7
2018-Apr-16 14:00N 22°14' W 175°08'0 0.0 23.7
2018-Apr-16 13:00N 22°14' W 175°08'3 0.8 23.7
2018-Apr-16 09:00N 22°17' W 175°07'0 0.0 23.6
2018-Apr-16 08:00N 22°17' W 175°07'1 0.8 23.5
2018-Apr-16 07:00N 22°18' W 175°06'1 0.8 23.5
2018-Apr-16 06:00N 22°19' W 175°05'1 1.1 23.5
2018-Apr-16 05:00N 22°19' W 175°04'0 0.0 23.5
2018-Apr-16 03:00N 22°19' W 175°04'1 1.3 23.5
2018-Apr-16 02:00N 22°20' W 175°04'0 0.0 23.5
2018-Apr-16 01:00N 22°20' W 175°04'3 1.1 23.5
2018-Apr-15 22:00N 22°22' W 175°01'2 0.8 23.5
2018-Apr-15 20:00N 22°23' W 174°59'1 0.8 23.5
2018-Apr-15 19:00N 22°23' W 175°00'2 2.1 23.5
2018-Apr-15 18:00N 22°25' W 174°58'1 0.6 23.4
2018-Apr-15 17:00N 22°25' W 174°59'0 0.0 23.5
2018-Apr-15 16:00N 22°25' W 174°59'2 1.6 23.5
2018-Apr-15 15:00N 22°26' W 174°58'0 0.0 23.5
2018-Apr-15 14:00N 22°26' W 174°58'5 0.9 23.5
2018-Apr-15 09:00N 22°28' W 174°53'3 2.8 23.6
2018-Apr-15 08:00N 22°29' W 174°50'1 1.3 23.7
2018-Apr-15 07:00N 22°29' W 174°52'0 0.0 23.7
2018-Apr-15 06:00N 22°29' W 174°52'2 2.1 23.7
2018-Apr-15 05:00N 22°31' W 174°50'1 0.8 23.7
2018-Apr-15 04:00N 22°30' W 174°49'1 1.1 23.8
2018-Apr-15 03:00N 22°30' W 174°48'0 0.0 23.8
2018-Apr-15 02:00N 22°30' W 174°48'0 0.0 23.8
2018-Apr-15 01:00N 22°30' W 174°48'2 0.8 23.8
2018-Apr-14 22:00N 22°31' W 174°46'2 2.3 23.8
2018-Apr-14 21:00N 22°30' W 174°43'0 0.0 23.8
2018-Apr-14 20:00N 22°30' W 174°43'1 0.8 23.8
2018-Apr-14 19:00N 22°29' W 174°44'2 2.1 23.9
2018-Apr-14 18:00N 22°28' W 174°43'1 1.1 23.9
2018-Apr-14 17:00N 22°28' W 174°41'2 2.3 23.9
2018-Apr-14 16:00N 22°27' W 174°39'0 0.0 23.9
2018-Apr-14 15:00N 22°27' W 174°39'0 0.0 23.9
2018-Apr-14 14:00N 22°27' W 174°39'4 0.8 23.9
2018-Apr-14 09:00N 22°25' W 174°35'1 0.6 24.0
2018-Apr-14 08:00N 22°25' W 174°35'1 0.6 24.1
2018-Apr-14 07:00N 22°25' W 174°35'2 2.3 24.1
2018-Apr-14 06:00N 22°25' W 174°33'0 0.0 24.1
2018-Apr-14 05:00N 22°25' W 174°33'1 0.6 24.1
2018-Apr-14 04:00N 22°25' W 174°34'1 0.6 24.1
2018-Apr-14 03:00N 22°25' W 174°33'0 0.0 24.1
2018-Apr-14 01:00N 22°25' W 174°33'2 0.8 24.1
2018-Apr-13 22:00N 22°24' W 174°31'1 0.8 24.1
2018-Apr-13 21:00N 22°25' W 174°31'0 0.0 24.1
2018-Apr-13 20:00N 22°25' W 174°31'1 0.8 24.1
2018-Apr-13 19:00N 22°24' W 174°31'0 0.0 24.1
2018-Apr-13 18:00N 22°24' W 174°31'1 1.3 24.1
2018-Apr-13 17:00N 22°23' W 174°29'1 0.6 24.1
2018-Apr-13 16:00N 22°24' W 174°29'0 0.0 24.1
2018-Apr-13 15:00N 22°24' W 174°29'4 4.5 24.1
2018-Apr-13 14:00N 22°25' W 174°25'0 0.0 24.1
2018-Apr-13 09:00N 22°25' W 174°25'1 0.6 24.2
2018-Apr-13 08:00N 22°25' W 174°24'1 0.8 24.2
2018-Apr-13 07:00N 22°25' W 174°23'1 1.3 24.2
2018-Apr-13 06:00N 22°26' W 174°22'0 0.0 24.3
2018-Apr-13 05:00N 22°26' W 174°22'1 0.8 24.3
2018-Apr-13 04:00N 22°26' W 174°22'1 0.3 24.3
2018-Apr-13 02:00N 22°26' W 174°21'0 0.0 24.4
2018-Apr-13 01:00N 22°26' W 174°21'4 1.3 24.4
2018-Apr-12 22:00N 22°26' W 174°17'1 0.8 24.3
2018-Apr-12 21:00N 22°26' W 174°16'1 1.3 24.3
2018-Apr-12 20:00N 22°26' W 174°15'0 0.0 24.3
2018-Apr-12 19:00N 22°26' W 174°15'2 1.7 24.3
2018-Apr-12 18:00N 22°26' W 174°13'0 0.0 24.3
2018-Apr-12 17:00N 22°26' W 174°13'0 0.0 24.3
2018-Apr-12 16:00N 22°26' W 174°13'0 0.0 24.3
2018-Apr-12 15:00N 22°26' W 174°13'4 4.1 24.3
2018-Apr-12 14:00N 22°23' W 174°10'0 0.0 24.3
2018-Apr-12 09:00N 22°23' W 174°10'1 1.1 24.4
2018-Apr-12 08:00N 22°23' W 174°08'1 0.8 24.4
2018-Apr-12 07:00N 22°23' W 174°08'1 0.8 24.5
2018-Apr-12 06:00N 22°22' W 174°08'3 2.9 24.5
2018-Apr-12 05:00N 22°20' W 174°07'0 0.0 24.5
2018-Apr-12 04:00N 22°20' W 174°07'0 0.0 24.6
2018-Apr-12 03:00N 22°20' W 174°07'0 0.0 24.6
2018-Apr-12 02:00N 22°20' W 174°07'2 0.5 24.5
2018-Apr-11 22:00N 22°18' W 174°05'1 0.8 24.3
2018-Apr-11 21:00N 22°17' W 174°06'1 0.6 24.2
2018-Apr-11 20:00N 22°17' W 174°05'0 0.0 24.2
2018-Apr-11 19:00N 22°17' W 174°05'2 1.9 24.1
2018-Apr-11 18:00N 22°16' W 174°06'2 1.9 24.2
2018-Apr-11 17:00N 22°14' W 174°05'0 0.0 24.2
2018-Apr-11 16:00N 22°14' W 174°05'0 0.0 24.2
2018-Apr-11 15:00N 22°14' W 174°05'4 4.2 24.2
2018-Apr-11 14:00N 22°10' W 174°06'2 0.5 24.2
2018-Apr-11 09:00N 22°08' W 174°08'1 0.6 24.2
2018-Apr-11 08:00N 22°08' W 174°07'1 0.8 24.3
2018-Apr-11 07:00N 22°07' W 174°08'1 1.3 24.3
2018-Apr-11 06:00N 22°07' W 174°07'1 0.6 24.3
2018-Apr-11 05:00N 22°06' W 174°07'1 0.8 24.3
2018-Apr-11 04:00N 22°05' W 174°07'2 1.6 24.3
2018-Apr-11 03:00N 22°04' W 174°08'0 0.0 24.3
2018-Apr-11 02:00N 22°04' W 174°08'4 1.0 24.3
2018-Apr-10 22:00N 22°01' W 174°10'0 0.0 24.2
2018-Apr-10 21:00N 22°01' W 174°10'1 1.2 24.2
2018-Apr-10 20:00N 21°59' W 174°10'2 2.3 24.2
2018-Apr-10 19:00N 21°59' W 174°13'0 0.0 24.2
2018-Apr-10 18:00N 21°59' W 174°13'1 1.3 24.2
2018-Apr-10 17:00N 21°58' W 174°12'2 1.7 24.2
2018-Apr-10 16:00N 21°58' W 174°14'0 0.0 24.2
2018-Apr-10 15:00N 21°58' W 174°14'5 0.8 24.2
2018-Apr-10 09:00N 21°53' W 174°17'1 0.8 24.3
2018-Apr-10 08:00N 21°53' W 174°16'2 2.1 24.2
2018-Apr-10 07:00N 21°52' W 174°18'0 0.0 24.2
2018-Apr-10 06:00N 21°52' W 174°18'1 0.8 24.2
2018-Apr-10 05:00N 21°51' W 174°19'2 1.6 24.2
2018-Apr-10 04:00N 21°50' W 174°20'0 0.0 24.2
2018-Apr-10 03:00N 21°50' W 174°20'1 0.8 24.2
2018-Apr-10 02:00N 21°49' W 174°20'2 0.3 24.3
2018-Apr-09 21:00N 21°48' W 174°19'0 0.0 24.2
2018-Apr-09 20:00N 21°48' W 174°19'1 1.3 24.2
2018-Apr-09 19:00N 21°47' W 174°20'0 0.0 24.2
2018-Apr-09 18:00N 21°47' W 174°20'1 0.6 24.2
2018-Apr-09 17:00N 21°47' W 174°20'2 1.7 24.2
2018-Apr-09 16:00N 21°47' W 174°22'0 0.0 24.2
2018-Apr-09 15:00N 21°47' W 174°22'4 3.7 24.2
2018-Apr-09 14:00N 21°45' W 174°25'0 0.0 24.2
2018-Apr-09 13:00N 21°45' W 174°25'1 0.2 24.2
2018-Apr-09 09:00N 21°46' W 174°24'   24.1

Dump ship's entire track history